createdAt,value
2022-12-14T00:02:54.066Z,11.77
2022-12-14T00:08:17.915Z,12.23
2022-12-14T00:13:41.039Z,11.87
2022-12-14T00:19:05.239Z,12.10
2022-12-14T00:24:26.991Z,12.27
2022-12-14T00:29:48.716Z,11.57
2022-12-14T00:35:12.151Z,11.63
2022-12-14T00:40:33.919Z,12.07
2022-12-14T00:45:55.717Z,11.80
2022-12-14T00:51:18.396Z,11.97
2022-12-14T00:56:40.137Z,12.47
2022-12-14T01:02:01.976Z,12.63
2022-12-14T01:07:23.796Z,11.13
2022-12-14T01:12:45.643Z,12.10
2022-12-14T01:18:07.616Z,12.20
2022-12-14T01:23:29.964Z,11.83
2022-12-14T01:28:57.176Z,11.47
2022-12-14T01:34:19.324Z,12.33
2022-12-14T01:39:41.119Z,11.00
2022-12-14T01:45:03.902Z,12.13
2022-12-14T01:50:35.846Z,12.70
2022-12-14T01:55:57.654Z,11.37
2022-12-14T02:01:19.493Z,11.80
2022-12-14T02:06:44.029Z,11.83
2022-12-14T02:12:12.861Z,12.40
2022-12-14T02:17:35.053Z,12.20
2022-12-14T02:23:29.387Z,12.67
2022-12-14T02:29:23.736Z,12.60
2022-12-14T02:35:04.120Z,11.93
2022-12-14T02:40:47.099Z,13.30
2022-12-14T02:46:29.040Z,13.37
2022-12-14T02:52:14.061Z,12.97
2022-12-14T02:57:50.631Z,12.50
2022-12-14T03:03:12.452Z,14.83
2022-12-14T03:08:36.072Z,13.47
2022-12-14T03:14:15.504Z,13.70
2022-12-14T03:19:54.743Z,13.20
2022-12-14T03:25:24.549Z,13.50
2022-12-14T03:31:01.314Z,14.30
2022-12-14T03:36:33.499Z,14.60
2022-12-14T03:42:10.099Z,14.80
2022-12-14T03:48:09.291Z,14.07
2022-12-14T03:53:33.935Z,15.53
2022-12-14T03:59:12.069Z,14.93
2022-12-14T04:04:49.137Z,15.13
2022-12-14T04:10:38.756Z,16.20
2022-12-14T04:16:26.385Z,15.87
2022-12-14T04:21:53.225Z,15.47
2022-12-14T04:27:24.683Z,16.00
2022-12-14T04:32:53.971Z,15.83
2022-12-14T04:38:20.097Z,15.93
2022-12-14T04:43:48.979Z,16.60
2022-12-14T04:49:18.344Z,15.83
2022-12-14T04:54:59.754Z,16.70
2022-12-14T05:00:21.495Z,17.67
2022-12-14T05:06:06.246Z,16.37
2022-12-14T05:17:14.988Z,16.97
2022-12-14T05:22:38.753Z,17.03
2022-12-14T05:28:00.502Z,15.87
2022-12-14T05:33:22.300Z,17.10
2022-12-14T05:38:44.068Z,15.67
2022-12-14T05:44:05.964Z,17.27
2022-12-14T05:49:27.709Z,16.87
2022-12-14T05:54:49.439Z,18.53
2022-12-14T06:00:11.703Z,18.23
2022-12-14T06:05:33.627Z,17.90
2022-12-14T06:11:02.578Z,19.93
2022-12-14T06:16:25.691Z,20.17
2022-12-14T06:21:47.519Z,19.40
2022-12-14T06:27:09.248Z,19.77
2022-12-14T06:32:31.005Z,20.03
2022-12-14T06:37:52.757Z,19.33
2022-12-14T06:43:15.288Z,20.93
2022-12-14T06:48:37.113Z,21.83
2022-12-14T06:53:58.936Z,23.70
2022-12-14T06:59:20.968Z,22.50
2022-12-14T07:04:42.692Z,23.17
2022-12-14T07:10:05.047Z,21.83
2022-12-14T07:15:26.830Z,21.27
2022-12-14T07:20:59.795Z,21.57
2022-12-14T07:26:27.527Z,21.57
2022-12-14T07:31:49.940Z,22.13
2022-12-14T07:37:13.188Z,22.00
2022-12-14T07:42:34.899Z,21.70
2022-12-14T07:47:57.072Z,22.77
2022-12-14T07:53:18.818Z,21.80
2022-12-14T07:58:41.082Z,23.10
2022-12-14T08:04:09.272Z,21.90
2022-12-14T08:09:31.420Z,23.83
2022-12-14T08:14:53.235Z,23.57
2022-12-14T08:20:15.065Z,23.40
2022-12-14T08:25:36.820Z,24.27
2022-12-14T08:31:04.644Z,24.17
2022-12-14T08:36:29.535Z,24.33
2022-12-14T08:41:51.508Z,23.40
2022-12-14T08:47:13.215Z,23.47
2022-12-14T08:52:34.989Z,23.80
2022-12-14T08:57:56.980Z,24.07
2022-12-14T09:03:18.860Z,25.93
2022-12-14T09:08:41.152Z,25.13
2022-12-14T09:14:03.022Z,26.43
2022-12-14T09:19:24.829Z,25.90
2022-12-14T09:24:46.613Z,25.90
2022-12-14T09:30:08.879Z,26.57
2022-12-14T09:35:30.570Z,26.33
2022-12-14T09:40:57.384Z,26.70
2022-12-14T09:46:44.157Z,27.40
2022-12-14T09:52:10.283Z,25.70
2022-12-14T09:57:39.130Z,26.97
2022-12-14T10:03:58.104Z,27.67
2022-12-14T10:09:32.653Z,28.23
2022-12-14T10:15:01.962Z,28.33
2022-12-14T10:20:35.796Z,29.60
2022-12-14T10:26:07.462Z,27.60
2022-12-14T10:31:44.832Z,30.83
2022-12-14T10:37:12.578Z,30.30
2022-12-14T10:42:43.823Z,30.13
2022-12-14T10:48:39.855Z,30.57
2022-12-14T10:54:08.620Z,32.37
2022-12-14T10:59:39.619Z,31.43
2022-12-14T11:05:16.933Z,31.57
2022-12-14T11:10:41.556Z,30.97
2022-12-14T11:16:33.677Z,31.77
2022-12-14T11:22:18.446Z,32.40
2022-12-14T11:27:43.660Z,32.00
2022-12-14T11:33:05.484Z,31.60
2022-12-14T11:38:29.972Z,32.70
2022-12-14T11:44:04.166Z,34.33
2022-12-14T11:49:43.835Z,34.20
2022-12-14T11:55:26.177Z,33.37
2022-12-14T12:00:50.816Z,33.90
2022-12-14T12:06:15.648Z,31.83
2022-12-14T12:11:45.262Z,34.03
2022-12-14T12:17:37.519Z,33.60
2022-12-14T12:23:06.821Z,34.13
2022-12-14T12:28:34.175Z,34.00
2022-12-14T12:34:01.899Z,32.77
2022-12-14T12:39:24.931Z,33.00
2022-12-14T12:45:05.293Z,34.30
2022-12-14T12:50:32.092Z,35.03
2022-12-14T12:56:03.482Z,32.00
2022-12-14T13:01:28.736Z,33.17
2022-12-14T13:06:56.795Z,31.97
2022-12-14T13:12:28.523Z,32.67
2022-12-14T13:18:05.512Z,33.60
2022-12-14T13:23:45.535Z,34.20
2022-12-14T13:29:23.304Z,34.20
2022-12-14T13:35:31.436Z,32.20
2022-12-14T13:41:08.831Z,32.97
2022-12-14T13:46:31.034Z,33.67
2022-12-14T13:51:52.959Z,34.13
2022-12-14T13:57:23.328Z,32.87
2022-12-14T14:02:53.440Z,32.60
2022-12-14T14:08:39.208Z,35.57
2022-12-14T14:14:11.947Z,33.93
2022-12-14T14:19:39.465Z,33.53
2022-12-14T14:25:25.765Z,34.03
2022-12-14T14:30:54.258Z,33.30
2022-12-14T14:36:30.437Z,31.20
2022-12-14T14:41:53.515Z,31.63
2022-12-14T14:47:35.763Z,32.57
2022-12-14T14:53:19.474Z,31.50
2022-12-14T14:58:42.401Z,31.80
2022-12-14T15:04:21.517Z,32.67
2022-12-14T15:09:59.563Z,29.40
2022-12-14T15:15:36.104Z,27.63
2022-12-14T15:21:19.261Z,26.23
2022-12-14T15:26:41.659Z,26.97
2022-12-14T15:32:05.029Z,26.50
2022-12-14T15:37:48.747Z,25.50
2022-12-14T15:43:20.818Z,26.60
2022-12-14T15:48:42.954Z,27.00
2022-12-14T15:54:07.319Z,26.63
2022-12-14T15:59:32.288Z,27.47
2022-12-14T16:04:56.700Z,26.83
2022-12-14T16:10:24.060Z,26.97
2022-12-14T16:15:46.613Z,26.50
2022-12-14T16:21:26.369Z,26.53
2022-12-14T16:26:56.975Z,25.80
2022-12-14T16:32:21.269Z,26.33
2022-12-14T16:37:43.155Z,24.77
2022-12-14T16:43:06.598Z,25.27
2022-12-14T16:48:29.192Z,24.83
2022-12-14T16:54:02.451Z,24.87
2022-12-14T16:59:44.308Z,25.33
2022-12-14T17:05:14.389Z,26.27
2022-12-14T17:10:38.741Z,25.63
2022-12-14T17:16:03.772Z,25.00
2022-12-14T17:21:28.333Z,24.80
2022-12-14T17:26:52.511Z,25.50
2022-12-14T17:32:16.540Z,24.07
2022-12-14T17:37:38.329Z,24.40
2022-12-14T17:43:00.024Z,21.47
2022-12-14T17:48:21.786Z,22.23
2022-12-14T17:53:43.883Z,22.80
2022-12-14T17:59:05.651Z,23.37
2022-12-14T18:04:27.559Z,23.53
2022-12-14T18:09:50.477Z,22.83
2022-12-14T18:15:19.575Z,22.57
2022-12-14T18:20:43.077Z,22.90
2022-12-14T18:26:06.124Z,24.77
2022-12-14T18:31:35.948Z,23.70
2022-12-14T18:36:58.111Z,23.47
2022-12-14T18:42:22.675Z,23.60
2022-12-14T18:47:45.819Z,24.67
2022-12-14T18:53:11.805Z,24.70
2022-12-14T18:58:33.665Z,25.10
2022-12-14T19:03:55.596Z,25.73
2022-12-14T19:09:17.648Z,25.77
2022-12-14T19:14:40.044Z,26.23
2022-12-14T19:20:02.150Z,24.70
2022-12-14T19:25:24.370Z,24.97
2022-12-14T19:30:46.620Z,24.17
2022-12-14T19:36:09.324Z,24.53
2022-12-14T19:41:31.196Z,25.00
2022-12-14T19:46:53.092Z,25.70
2022-12-14T19:52:14.894Z,26.53
2022-12-14T19:57:38.377Z,27.20
2022-12-14T20:03:00.297Z,29.27
2022-12-14T20:08:23.137Z,28.17
2022-12-14T20:13:44.848Z,28.70
2022-12-14T20:19:07.073Z,29.67
2022-12-14T20:24:28.976Z,28.53
2022-12-14T20:29:50.845Z,30.60
2022-12-14T20:35:16.713Z,30.97
2022-12-14T20:40:39.480Z,30.00
2022-12-14T20:46:02.018Z,29.43
2022-12-14T20:51:24.093Z,30.97
2022-12-14T20:56:49.389Z,31.80
2022-12-14T21:02:20.531Z,33.63
2022-12-14T21:07:42.469Z,31.27
2022-12-14T21:13:07.576Z,29.60
2022-12-14T21:18:29.815Z,30.70
2022-12-14T21:23:51.579Z,32.20
2022-12-14T21:29:14.317Z,32.60
2022-12-14T21:34:36.239Z,30.33
2022-12-14T21:39:57.935Z,33.13
2022-12-14T21:45:19.716Z,32.07
2022-12-14T21:50:43.634Z,30.67
2022-12-14T21:56:24.537Z,30.33
2022-12-14T22:01:46.363Z,29.73
2022-12-14T22:07:08.175Z,29.83
2022-12-14T22:12:29.967Z,32.03
2022-12-14T22:17:51.767Z,31.47
2022-12-14T22:23:13.587Z,31.57
2022-12-14T22:28:35.365Z,31.00
2022-12-14T22:33:57.533Z,31.30
2022-12-14T22:39:19.741Z,31.77
2022-12-14T22:44:41.521Z,32.83
2022-12-14T22:50:03.540Z,31.57
2022-12-14T22:55:27.836Z,32.27
2022-12-14T23:00:50.028Z,30.43
2022-12-14T23:06:15.534Z,31.77
2022-12-14T23:11:55.760Z,31.67
2022-12-14T23:17:36.506Z,32.20
2022-12-14T23:23:16.674Z,30.77
2022-12-14T23:28:57.525Z,30.07
2022-12-14T23:34:38.121Z,30.20
2022-12-14T23:40:18.268Z,30.73
2022-12-14T23:45:58.967Z,31.37
2022-12-14T23:51:39.035Z,31.13
2022-12-14T23:57:19.346Z,31.70
